Huntersville, NC (28070)

11:10 AM EDT on September 28, 2016 (GMT -0400)
Sherwood Forest | | Change Station

Elev 784 ft 35.42 °N, 80.85 °W | Updated 1 second ago

Scattered Clouds
Scattered Clouds
76.7 °F
Feels Like 78 °F
N
0.0
Wind Variable Wind from SW
Gusts 0.0 mph

Today
High -- | Low -- °F
--% Chance of Precip.
Yesterday
High -- | Low -- °F
Precip. -- in
Pressure 29.98 in
Visibility 10.0 miles
Clouds Scattered Clouds 1600 ft
Heat Index 78 °F
Dew Point 70 °F
Humidity 80%
Rainfall 0.00 in
Snow Depth Not available.
7:16 AM 7:10 PM
Waning Crescent, 5% visible
METAR KJQF 281255Z 18004KT 10SM SCT016 22/19 A2998
Pressure 29.98 in
Visibility 10.0 miles
Clouds Scattered Clouds 1600 ft
Heat Index 78 °F
Dew Point 70 °F
Humidity 80%
Rainfall 0.00 in
Snow Depth Not available.
7:16 AM 7:10 PM
Waning Crescent, 5% visible
METAR KJQF 281255Z 18004KT 10SM SCT016 22/19 A2998

10-Day Weather Forecast

Almanac

Astronomy

Sep. 28, 2016 Rise Set
Actual Time
Civil Twilight
Nautical Twilight
Astronomical Twilight
Moon
Length of Visible Light
Length of Day
Tomorrow will be .
, % of the Moon is Illuminated

Today's Extremes

State Highs State Lows

Community

WunderPhotos

Upload Photos

1,942,274 photos uploaded!

WunderBlog® & News

Nearby

Air Quality

  Air Quality AQ Index Pollutant
Not available.

Snow Depth

Station Depth Elevation

Earthquake Activity

City Distance Mag. Time & Date
Minimum magnitude displayed is 2.5.

Coastal Water Temperatures

Place Temperature

Stations

Nearby Weather Stations

Station Location Temp. Windchill Dew Point Humidity Wind Precip. Elev Updated Type
                   

Watches & Warnings

There are currently no watches in effect.